Aviation Digital Data Service (ADDS)

Output produced by METARs form (1025 UTC 05 August 2015)
found at http://aviationweather.gov/adds/metars/
 
KFNT 050520Z 0506/0606 28006KT P6SM SCT060 
     FM051700 34008KT P6SM SCT060 
     FM060100 03005KT P6SM SKC